SBCJ

Details ICAO SBCJ (CKS)
Name CARAJAS
Region Brazil
Timezone America/Belem (UTC-3.0)
Plans Departing 6
Arriving 8
Stats Elevation 2,038 ft / 621 m (AMSL)
Location -6.117792° -50.003555°
Runways 1
Magnetic Variation 20.406° W
Sunrise 2018-05-24 09:24:02 UTC / 2018-05-24 06:24:02 Local
Sunset 2018-05-24 21:12:34 UTC / 2018-05-24 18:12:34 Local
Advertisement - Login to hide

Runways

ID Width Length Bearing (true) Bearing (mag) Surface Threshold Offset Overrun Length
10 148 ft / 45 m 6,555 ft / 1,998 m 83.34° 103.75° Asphalt 0 ft / 0 m 198 ft / 60 m
28 148 ft / 45 m 6,555 ft / 1,998 m 263.34° 283.75° Asphalt 0 ft / 0 m 0 ft / 0 m

Map

Weather


0- 5 10 15 20 25 30 35+ Temperature / ° C

Clouds and Precipitation
Forecast for 2018-05-24 12:00 UTC. Updated 5 hours ago

Ground ~20,000 ft ~40,000 ft Winds

METAR

SBCJ 241500Z 10001KT 9999 FEW020 27/21 Q1019

TAF

TAF SBCJ 241000Z 2412/2424 06005KT 9999 FEW015 TN22/2412Z TX28/2418Z BECMG 2415/2417 09005KT SCT025 FEW030TCU BECMG 2421/2423 00000KT CAVOK RMK PCQ

Frequencies

Tower 131.70 MHz RDO
Warning: Do not use this data for real-world aviation or navigation. No guarantee of current accuracy is given.